sensor_id;sensor_type;location;lat;lon;timestamp;pressure;altitude;pressure_sealevel;temperature;humidity
63111;BME280;49201;53.426;10.300;2023-04-10T00:00:49;102605.03;;;7.51;100.00
63111;BME280;49201;53.426;10.300;2023-04-10T00:03:22;102609.59;;;7.56;100.00
63111;BME280;49201;53.426;10.300;2023-04-10T00:05:48;102615.97;;;7.50;100.00
63111;BME280;49201;53.426;10.300;2023-04-10T00:08:13;102606.78;;;7.52;100.00
63111;BME280;49201;53.426;10.300;2023-04-10T00:10:38;102618.25;;;7.45;100.00
63111;BME280;49201;53.426;10.300;2023-04-10T00:13:04;102613.78;;;7.41;100.00
63111;BME280;49201;53.426;10.300;2023-04-10T00:15:29;102613.06;;;7.44;100.00
63111;BME280;49201;53.426;10.300;2023-04-10T00:17:55;102614.47;;;7.39;100.00
63111;BME280;49201;53.426;10.300;2023-04-10T00:20:21;102605.16;;;7.39;100.00
63111;BME280;49201;53.426;10.300;2023-04-10T00:22:47;102599.28;;;7.40;100.00
63111;BME280;49201;53.426;10.300;2023-04-10T00:25:13;102599.78;;;7.35;100.00
63111;BME280;49201;53.426;10.300;2023-04-10T00:27:38;102591.28;;;7.34;100.00
63111;BME280;49201;53.426;10.300;2023-04-10T00:30:04;102590.88;;;7.28;100.00
63111;BME280;49201;53.426;10.300;2023-04-10T00:32:29;102582.19;;;7.25;100.00
63111;BME280;49201;53.426;10.300;2023-04-10T00:34:55;102580.00;;;7.31;100.00
63111;BME280;49201;53.426;10.300;2023-04-10T00:37:20;102577.97;;;7.25;100.00
63111;BME280;49201;53.426;10.300;2023-04-10T00:39:46;102586.50;;;7.13;100.00
63111;BME280;49201;53.426;10.300;2023-04-10T00:42:11;102585.44;;;7.22;100.00
63111;BME280;49201;53.426;10.300;2023-04-10T00:44:37;102583.47;;;7.18;100.00
63111;BME280;49201;53.426;10.300;2023-04-10T00:47:06;102582.81;;;7.08;100.00
63111;BME280;49201;53.426;10.300;2023-04-10T00:49:33;102583.34;;;7.02;100.00
63111;BME280;49201;53.426;10.300;2023-04-10T00:51:59;102574.31;;;7.07;100.00
63111;BME280;49201;53.426;10.300;2023-04-10T00:54:25;102571.38;;;7.01;100.00
63111;BME280;49201;53.426;10.300;2023-04-10T00:56:51;102576.75;;;7.06;100.00
63111;BME280;49201;53.426;10.300;2023-04-10T00:59:17;102573.31;;;7.05;100.00
63111;BME280;49201;53.426;10.300;2023-04-10T01:01:42;102580.09;;;7.05;100.00
63111;BME280;49201;53.426;10.300;2023-04-10T01:04:09;102585.19;;;7.05;100.00
63111;BME280;49201;53.426;10.300;2023-04-10T01:12:10;102580.50;;;6.98;100.00
63111;BME280;49201;53.426;10.300;2023-04-10T01:15:14;102584.53;;;6.94;100.00
63111;BME280;49201;53.426;10.300;2023-04-10T01:20:23;102574.75;;;6.87;100.00
63111;BME280;49201;53.426;10.300;2023-04-10T01:26:10;102580.34;;;6.82;100.00
63111;BME280;49201;53.426;10.300;2023-04-10T01:28:50;102579.81;;;6.87;100.00
63111;BME280;49201;53.426;10.300;2023-04-10T01:31:20;102581.03;;;6.79;100.00
63111;BME280;49201;53.426;10.300;2023-04-10T01:33:53;102575.25;;;6.82;100.00
63111;BME280;49201;53.426;10.300;2023-04-10T01:36:26;102571.72;;;6.80;100.00
63111;BME280;49201;53.426;10.300;2023-04-10T01:38:54;102569.97;;;6.79;100.00
63111;BME280;49201;53.426;10.300;2023-04-10T01:41:21;102572.72;;;6.82;100.00
63111;BME280;49201;53.426;10.300;2023-04-10T01:43:49;102574.09;;;6.77;100.00
63111;BME280;49201;53.426;10.300;2023-04-10T01:46:18;102569.41;;;6.70;100.00
63111;BME280;49201;53.426;10.300;2023-04-10T01:48:46;102566.94;;;6.71;100.00
63111;BME280;49201;53.426;10.300;2023-04-10T01:51:12;102562.66;;;6.70;100.00
63111;BME280;49201;53.426;10.300;2023-04-10T01:53:39;102562.25;;;6.64;100.00
63111;BME280;49201;53.426;10.300;2023-04-10T01:56:07;102559.53;;;6.61;100.00
63111;BME280;49201;53.426;10.300;2023-04-10T01:58:39;102562.06;;;6.61;100.00
63111;BME280;49201;53.426;10.300;2023-04-10T02:01:05;102553.19;;;6.55;100.00
63111;BME280;49201;53.426;10.300;2023-04-10T02:03:31;102548.78;;;6.52;100.00
63111;BME280;49201;53.426;10.300;2023-04-10T02:06:24;102552.69;;;6.47;100.00
63111;BME280;49201;53.426;10.300;2023-04-10T02:08:58;102541.94;;;6.51;100.00
63111;BME280;49201;53.426;10.300;2023-04-10T02:13:55;102537.44;;;6.47;100.00
63111;BME280;49201;53.426;10.300;2023-04-10T02:16:24;102532.63;;;6.52;100.00
63111;BME280;49201;53.426;10.300;2023-04-10T02:18:50;102534.00;;;6.47;100.00
63111;BME280;49201;53.426;10.300;2023-04-10T02:21:17;102528.22;;;6.49;100.00
63111;BME280;49201;53.426;10.300;2023-04-10T02:23:42;102517.94;;;6.48;100.00
63111;BME280;49201;53.426;10.300;2023-04-10T02:26:08;102521.28;;;6.47;100.00
63111;BME280;49201;53.426;10.300;2023-04-10T02:28:36;102516.50;;;6.51;100.00
63111;BME280;49201;53.426;10.300;2023-04-10T02:31:05;102512.09;;;6.49;100.00
63111;BME280;49201;53.426;10.300;2023-04-10T02:33:31;102507.06;;;6.50;100.00
63111;BME280;49201;53.426;10.300;2023-04-10T02:35:57;102513.66;;;6.47;100.00
63111;BME280;49201;53.426;10.300;2023-04-10T02:38:24;102501.03;;;6.48;100.00
63111;BME280;49201;53.426;10.300;2023-04-10T02:40:49;102508.66;;;6.48;100.00
63111;BME280;49201;53.426;10.300;2023-04-10T02:43:16;102508.66;;;6.48;100.00
63111;BME280;49201;53.426;10.300;2023-04-10T02:45:41;102514.34;;;6.44;100.00
63111;BME280;49201;53.426;10.300;2023-04-10T02:48:10;102499.97;;;6.45;100.00
63111;BME280;49201;53.426;10.300;2023-04-10T02:50:36;102504.38;;;6.47;100.00
63111;BME280;49201;53.426;10.300;2023-04-10T02:53:01;102509.25;;;6.44;100.00
63111;BME280;49201;53.426;10.300;2023-04-10T02:55:26;102499.88;;;6.43;100.00
63111;BME280;49201;53.426;10.300;2023-04-10T02:57:52;102500.66;;;6.42;100.00
63111;BME280;49201;53.426;10.300;2023-04-10T03:00:18;102506.34;;;6.38;100.00
63111;BME280;49201;53.426;10.300;2023-04-10T03:03:03;102507.13;;;6.37;100.00
63111;BME280;49201;53.426;10.300;2023-04-10T03:05:37;102502.91;;;6.38;100.00
63111;BME280;49201;53.426;10.300;2023-04-10T03:08:03;102505.25;;;6.35;100.00
63111;BME280;49201;53.426;10.300;2023-04-10T03:10:29;102501.72;;;6.33;100.00
63111;BME280;49201;53.426;10.300;2023-04-10T03:12:54;102494.88;;;6.32;100.00
63111;BME280;49201;53.426;10.300;2023-04-10T03:15:20;102487.16;;;6.30;100.00
63111;BME280;49201;53.426;10.300;2023-04-10T03:17:46;102488.81;;;6.30;100.00
63111;BME280;49201;53.426;10.300;2023-04-10T03:20:12;102483.66;;;6.28;100.00
63111;BME280;49201;53.426;10.300;2023-04-10T03:22:37;102477.47;;;6.25;100.00
63111;BME280;49201;53.426;10.300;2023-04-10T03:25:04;102475.72;;;6.24;100.00
63111;BME280;49201;53.426;10.300;2023-04-10T03:27:30;102481.50;;;6.21;100.00
63111;BME280;49201;53.426;10.300;2023-04-10T03:29:59;102483.25;;;6.22;100.00
63111;BME280;49201;53.426;10.300;2023-04-10T03:32:25;102471.81;;;6.16;100.00
63111;BME280;49201;53.426;10.300;2023-04-10T03:34:52;102468.31;;;6.14;100.00
63111;BME280;49201;53.426;10.300;2023-04-10T03:37:18;102468.88;;;6.10;100.00
63111;BME280;49201;53.426;10.300;2023-04-10T03:39:44;102467.25;;;6.10;100.00
63111;BME280;49201;53.426;10.300;2023-04-10T03:42:12;102464.50;;;6.07;100.00
63111;BME280;49201;53.426;10.300;2023-04-10T03:44:38;102462.75;;;6.06;100.00
63111;BME280;49201;53.426;10.300;2023-04-10T03:47:03;102469.56;;;6.07;100.00
63111;BME280;49201;53.426;10.300;2023-04-10T03:49:29;102455.81;;;6.04;100.00
63111;BME280;49201;53.426;10.300;2023-04-10T03:52:01;102453.53;;;5.95;100.00
63111;BME280;49201;53.426;10.300;2023-04-10T03:54:27;102455.09;;;5.93;100.00
63111;BME280;49201;53.426;10.300;2023-04-10T03:56:52;102445.91;;;5.95;100.00
63111;BME280;49201;53.426;10.300;2023-04-10T03:59:20;102449.53;;;5.99;100.00
63111;BME280;49201;53.426;10.300;2023-04-10T04:01:45;102441.81;;;5.97;100.00
63111;BME280;49201;53.426;10.300;2023-04-10T04:04:11;102439.59;;;5.89;100.00
63111;BME280;49201;53.426;10.300;2023-04-10T04:07:12;102450.34;;;5.85;100.00
63111;BME280;49201;53.426;10.300;2023-04-10T04:09:50;102455.53;;;5.86;100.00
63111;BME280;49201;53.426;10.300;2023-04-10T04:12:34;102448.38;;;5.81;100.00
63111;BME280;49201;53.426;10.300;2023-04-10T04:15:04;102452.78;;;5.83;100.00
63111;BME280;49201;53.426;10.300;2023-04-10T04:17:49;102451.88;;;5.83;100.00
63111;BME280;49201;53.426;10.300;2023-04-10T04:20:47;102448.25;;;5.79;100.00
63111;BME280;49201;53.426;10.300;2023-04-10T04:23:47;102451.94;;;5.71;100.00
63111;BME280;49201;53.426;10.300;2023-04-10T04:26:29;102448.81;;;5.75;100.00
63111;BME280;49201;53.426;10.300;2023-04-10T04:29:10;102440.34;;;5.75;100.00
63111;BME280;49201;53.426;10.300;2023-04-10T04:31:56;102446.28;;;5.75;100.00
63111;BME280;49201;53.426;10.300;2023-04-10T04:34:37;102449.50;;;5.73;100.00
63111;BME280;49201;53.426;10.300;2023-04-10T04:37:12;102449.28;;;5.70;100.00
63111;BME280;49201;53.426;10.300;2023-04-10T04:40:00;102446.00;;;5.71;100.00
63111;BME280;49201;53.426;10.300;2023-04-10T04:42:54;102451.94;;;5.71;100.00
63111;BME280;49201;53.426;10.300;2023-04-10T04:45:36;102448.31;;;5.68;100.00
63111;BME280;49201;53.426;10.300;2023-04-10T04:48:15;102452.63;;;5.69;100.00
63111;BME280;49201;53.426;10.300;2023-04-10T04:50:53;102452.53;;;5.67;100.00
63111;BME280;49201;53.426;10.300;2023-04-10T04:53:44;102450.97;;;5.69;100.00
63111;BME280;49201;53.426;10.300;2023-04-10T04:56:27;102446.69;;;5.68;100.00
63111;BME280;49201;53.426;10.300;2023-04-10T04:59:22;102445.69;;;5.66;100.00
63111;BME280;49201;53.426;10.300;2023-04-10T05:01:54;102456.75;;;5.67;100.00
63111;BME280;49201;53.426;10.300;2023-04-10T05:04:49;102456.84;;;5.68;100.00
63111;BME280;49201;53.426;10.300;2023-04-10T05:07:22;102458.28;;;5.65;100.00
63111;BME280;49201;53.426;10.300;2023-04-10T05:10:07;102460.81;;;5.65;100.00
63111;BME280;49201;53.426;10.300;2023-04-10T05:13:07;102453.63;;;5.71;100.00
63111;BME280;49201;53.426;10.300;2023-04-10T05:15:45;102454.97;;;5.79;100.00
63111;BME280;49201;53.426;10.300;2023-04-10T05:18:29;102452.78;;;5.83;100.00
63111;BME280;49201;53.426;10.300;2023-04-10T05:21:17;102459.81;;;5.87;100.00
63111;BME280;49201;53.426;10.300;2023-04-10T05:24:18;102467.25;;;5.97;100.00
63111;BME280;49201;53.426;10.300;2023-04-10T05:27:02;102466.16;;;5.94;100.00
63111;BME280;49201;53.426;10.300;2023-04-10T05:29:40;102460.09;;;6.05;100.00
63111;BME280;49201;53.426;10.300;2023-04-10T05:32:12;102455.38;;;6.11;100.00
63111;BME280;49201;53.426;10.300;2023-04-10T05:34:58;102459.09;;;6.16;100.00
63111;BME280;49201;53.426;10.300;2023-04-10T05:37:39;102455.25;;;6.35;100.00
63111;BME280;49201;53.426;10.300;2023-04-10T05:40:43;102461.81;;;6.45;100.00
63111;BME280;49201;53.426;10.300;2023-04-10T05:43:26;102447.69;;;6.50;100.00
63111;BME280;49201;53.426;10.300;2023-04-10T05:45:58;102454.34;;;6.48;100.00
63111;BME280;49201;53.426;10.300;2023-04-10T05:48:47;102446.78;;;6.62;100.00
63111;BME280;49201;53.426;10.300;2023-04-10T05:51:48;102442.44;;;6.74;100.00
63111;BME280;49201;53.426;10.300;2023-04-10T05:54:33;102442.09;;;6.83;100.00
63111;BME280;49201;53.426;10.300;2023-04-10T05:57:08;102444.59;;;6.96;100.00
63111;BME280;49201;53.426;10.300;2023-04-10T05:59:56;102436.69;;;7.06;100.00
63111;BME280;49201;53.426;10.300;2023-04-10T06:02:39;102431.88;;;7.25;100.00
63111;BME280;49201;53.426;10.300;2023-04-10T06:05:09;102431.81;;;7.38;100.00
63111;BME280;49201;53.426;10.300;2023-04-10T06:07:36;102429.06;;;7.49;100.00
63111;BME280;49201;53.426;10.300;2023-04-10T06:10:02;102424.75;;;7.63;100.00
63111;BME280;49201;53.426;10.300;2023-04-10T06:12:31;102420.25;;;7.73;100.00
63111;BME280;49201;53.426;10.300;2023-04-10T06:14:59;102417.50;;;7.85;100.00
63111;BME280;49201;53.426;10.300;2023-04-10T06:17:27;102416.88;;;7.89;100.00
63111;BME280;49201;53.426;10.300;2023-04-10T06:19:53;102413.34;;;8.01;100.00
63111;BME280;49201;53.426;10.300;2023-04-10T06:22:18;102407.78;;;8.08;100.00
63111;BME280;49201;53.426;10.300;2023-04-10T06:24:44;102411.81;;;8.05;100.00
63111;BME280;49201;53.426;10.300;2023-04-10T06:27:09;102408.00;;;7.97;100.00
63111;BME280;49201;53.426;10.300;2023-04-10T06:29:36;102407.09;;;7.96;100.00
63111;BME280;49201;53.426;10.300;2023-04-10T06:32:02;102405.84;;;8.04;100.00
63111;BME280;49201;53.426;10.300;2023-04-10T06:34:32;102397.28;;;8.18;100.00
63111;BME280;49201;53.426;10.300;2023-04-10T06:37:01;102401.69;;;8.37;100.00
63111;BME280;49201;53.426;10.300;2023-04-10T06:39:27;102396.13;;;8.44;100.00
63111;BME280;49201;53.426;10.300;2023-04-10T06:41:52;102389.28;;;8.59;100.00
63111;BME280;49201;53.426;10.300;2023-04-10T06:44:27;102388.81;;;8.66;100.00
63111;BME280;49201;53.426;10.300;2023-04-10T06:46:53;102380.88;;;8.93;100.00
63111;BME280;49201;53.426;10.300;2023-04-10T06:49:18;102378.31;;;9.27;100.00
63111;BME280;49201;53.426;10.300;2023-04-10T06:51:44;102375.06;;;9.13;100.00
63111;BME280;49201;53.426;10.300;2023-04-10T06:54:12;102382.44;;;9.07;100.00
63111;BME280;49201;53.426;10.300;2023-04-10T06:56:37;102376.19;;;8.85;100.00
63111;BME280;49201;53.426;10.300;2023-04-10T06:59:03;102382.16;;;8.85;100.00
63111;BME280;49201;53.426;10.300;2023-04-10T07:01:28;102380.88;;;8.93;100.00
63111;BME280;49201;53.426;10.300;2023-04-10T07:03:54;102379.97;;;8.93;100.00
63111;BME280;49201;53.426;10.300;2023-04-10T07:06:20;102372.28;;;9.09;100.00
63111;BME280;49201;53.426;10.300;2023-04-10T07:08:47;102370.81;;;9.30;100.00
63111;BME280;49201;53.426;10.300;2023-04-10T07:11:13;102368.81;;;9.24;100.00
63111;BME280;49201;53.426;10.300;2023-04-10T07:13:38;102371.09;;;9.36;100.00
63111;BME280;49201;53.426;10.300;2023-04-10T07:16:05;102364.59;;;9.42;100.00
63111;BME280;49201;53.426;10.300;2023-04-10T07:18:32;102367.31;;;9.63;100.00
63111;BME280;49201;53.426;10.300;2023-04-10T07:20:59;102373.59;;;9.69;100.00
63111;BME280;49201;53.426;10.300;2023-04-10T07:23:24;102369.38;;;9.89;100.00
63111;BME280;49201;53.426;10.300;2023-04-10T07:25:50;102362.44;;;10.04;100.00
63111;BME280;49201;53.426;10.300;2023-04-10T07:28:16;102361.13;;;10.12;100.00
63111;BME280;49201;53.426;10.300;2023-04-10T07:30:41;102363.44;;;10.25;100.00
63111;BME280;49201;53.426;10.300;2023-04-10T07:33:07;102363.09;;;10.36;100.00
63111;BME280;49201;53.426;10.300;2023-04-10T07:35:32;102339.78;;;10.68;100.00
63111;BME280;49201;53.426;10.300;2023-04-10T07:37:58;102342.78;;;10.79;100.00
63111;BME280;49201;53.426;10.300;2023-04-10T07:40:23;102333.75;;;10.87;100.00
63111;BME280;49201;53.426;10.300;2023-04-10T07:42:49;102325.38;;;11.11;100.00
63111;BME280;49201;53.426;10.300;2023-04-10T07:45:14;102322.94;;;10.94;100.00
63111;BME280;49201;53.426;10.300;2023-04-10T07:47:40;102328.13;;;11.16;100.00
63111;BME280;49201;53.426;10.300;2023-04-10T07:50:07;102330.94;;;11.42;100.00
63111;BME280;49201;53.426;10.300;2023-04-10T07:52:33;102315.47;;;11.41;100.00
63111;BME280;49201;53.426;10.300;2023-04-10T07:55:02;102295.38;;;11.51;100.00
63111;BME280;49201;53.426;10.300;2023-04-10T07:57:27;102307.28;;;11.49;100.00
63111;BME280;49201;53.426;10.300;2023-04-10T07:59:53;102296.47;;;12.02;100.00
63111;BME280;49201;53.426;10.300;2023-04-10T08:02:18;102260.00;;;12.34;100.00
63111;BME280;49201;53.426;10.300;2023-04-10T08:04:44;102266.63;;;12.27;100.00
63111;BME280;49201;53.426;10.300;2023-04-10T08:07:10;102259.31;;;12.63;100.00
63111;BME280;49201;53.426;10.300;2023-04-10T08:09:35;102210.47;;;13.15;100.00
63111;BME280;49201;53.426;10.300;2023-04-10T08:12:01;102161.19;;;13.29;100.00
63111;BME280;49201;53.426;10.300;2023-04-10T08:14:26;102188.84;;;13.36;100.00
63111;BME280;49201;53.426;10.300;2023-04-10T08:16:52;102160.19;;;13.83;100.00
63111;BME280;49201;53.426;10.300;2023-04-10T08:19:17;102035.13;;;13.60;100.00
63111;BME280;49201;53.426;10.300;2023-04-10T08:21:43;101943.88;;;13.49;100.00
63111;BME280;49201;53.426;10.300;2023-04-10T08:24:08;101940.34;;;13.80;100.00
63111;BME280;49201;53.426;10.300;2023-04-10T08:26:34;101881.88;;;14.11;100.00
63111;BME280;49201;53.426;10.300;2023-04-10T08:28:59;101882.03;;;14.19;100.00
63111;BME280;49201;53.426;10.300;2023-04-10T08:31:26;101814.94;;;14.14;100.00
63111;BME280;49201;53.426;10.300;2023-04-10T08:33:52;101752.09;;;14.48;100.00
63111;BME280;49201;53.426;10.300;2023-04-10T08:36:17;101716.00;;;14.97;100.00
63111;BME280;49201;53.426;10.300;2023-04-10T08:38:43;101713.50;;;15.03;100.00
63111;BME280;49201;53.426;10.300;2023-04-10T08:41:10;101633.84;;;15.24;95.11
63111;BME280;49201;53.426;10.300;2023-04-10T08:43:36;101595.19;;;15.30;92.21
63111;BME280;49201;53.426;10.300;2023-04-10T08:46:02;101601.34;;;15.38;93.92
63111;BME280;49201;53.426;10.300;2023-04-10T08:48:35;101607.00;;;15.80;95.52
63111;BME280;49201;53.426;10.300;2023-04-10T08:51:03;101542.22;;;15.59;87.70
63111;BME280;49201;53.426;10.300;2023-04-10T08:53:30;101534.63;;;15.75;84.61
63111;BME280;49201;53.426;10.300;2023-04-10T08:55:56;101493.16;;;15.59;80.83
63111;BME280;49201;53.426;10.300;2023-04-10T08:58:23;101512.13;;;15.61;83.95
63111;BME280;49201;53.426;10.300;2023-04-10T09:00:50;101476.34;;;16.07;78.72
63111;BME280;49201;53.426;10.300;2023-04-10T09:03:16;101468.88;;;16.49;79.62
63111;BME280;49201;53.426;10.300;2023-04-10T09:05:41;101442.22;;;16.55;77.55
63111;BME280;49201;53.426;10.300;2023-04-10T09:08:07;101407.72;;;16.56;72.05
63111;BME280;49201;53.426;10.300;2023-04-10T09:10:33;101399.22;;;16.81;72.41
63111;BME280;49201;53.426;10.300;2023-04-10T09:12:59;101355.22;;;16.70;66.02
63111;BME280;49201;53.426;10.300;2023-04-10T09:15:25;101375.91;;;16.70;69.23
63111;BME280;49201;53.426;10.300;2023-04-10T09:18:01;101401.78;;;16.84;70.77
63111;BME280;49201;53.426;10.300;2023-04-10T09:20:29;101377.66;;;16.89;66.38
63111;BME280;49201;53.426;10.300;2023-04-10T09:22:55;101391.41;;;16.63;65.60
63111;BME280;49201;53.426;10.300;2023-04-10T09:25:37;101375.13;;;17.00;63.07
63111;BME280;49201;53.426;10.300;2023-04-10T09:28:07;101384.56;;;16.98;63.32
63111;BME280;49201;53.426;10.300;2023-04-10T09:30:40;101400.06;;;16.89;64.28
63111;BME280;49201;53.426;10.300;2023-04-10T09:33:22;101373.47;;;17.39;61.08
63111;BME280;49201;53.426;10.300;2023-04-10T09:35:48;101342.34;;;17.38;56.10
63111;BME280;49201;53.426;10.300;2023-04-10T09:38:21;101341.50;;;17.46;55.74
63111;BME280;49201;53.426;10.300;2023-04-10T09:40:47;101414.03;;;17.66;62.47
63111;BME280;49201;53.426;10.300;2023-04-10T09:43:24;101365.69;;;17.56;56.01
63111;BME280;49201;53.426;10.300;2023-04-10T09:45:51;101344.88;;;17.95;53.61
63111;BME280;49201;53.426;10.300;2023-04-10T09:48:17;101371.63;;;18.15;56.02
63111;BME280;49201;53.426;10.300;2023-04-10T09:50:42;101367.19;;;18.50;55.35
63111;BME280;49201;53.426;10.300;2023-04-10T09:53:10;101349.03;;;18.54;52.16
63111;BME280;49201;53.426;10.300;2023-04-10T09:55:36;101363.69;;;18.63;53.02
63111;BME280;49201;53.426;10.300;2023-04-10T09:58:03;101360.06;;;18.89;49.57
63111;BME280;49201;53.426;10.300;2023-04-10T10:00:29;101391.25;;;18.88;50.72
63111;BME280;49201;53.426;10.300;2023-04-10T10:02:58;101417.28;;;18.70;51.94
63111;BME280;49201;53.426;10.300;2023-04-10T10:05:25;101367.09;;;18.71;48.60
63111;BME280;49201;53.426;10.300;2023-04-10T10:07:55;101379.09;;;18.88;49.35
63111;BME280;49201;53.426;10.300;2023-04-10T10:10:22;101348.72;;;19.07;46.91
63111;BME280;49201;53.426;10.300;2023-04-10T10:12:51;101381.69;;;18.94;48.02
63111;BME280;49201;53.426;10.300;2023-04-10T10:16:01;101357.47;;;18.89;46.60
63111;BME280;49201;53.426;10.300;2023-04-10T10:21:03;101354.09;;;18.75;46.37
63111;BME280;49201;53.426;10.300;2023-04-10T10:23:30;101376.50;;;18.94;46.58
63111;BME280;49201;53.426;10.300;2023-04-10T10:25:57;101343.53;;;19.08;44.93
63111;BME280;49201;53.426;10.300;2023-04-10T10:28:24;101381.59;;;19.05;45.59
63111;BME280;49201;53.426;10.300;2023-04-10T10:30:52;101336.47;;;19.24;43.13
63111;BME280;49201;53.426;10.300;2023-04-10T10:33:19;101343.47;;;19.11;43.57
63111;BME280;49201;53.426;10.300;2023-04-10T10:35:45;101369.59;;;18.87;43.92
63111;BME280;49201;53.426;10.300;2023-04-10T10:38:11;101353.75;;;19.28;43.62
63111;BME280;49201;53.426;10.300;2023-04-10T10:40:41;101356.22;;;19.47;43.08
63111;BME280;49201;53.426;10.300;2023-04-10T10:46:06;101396.97;;;19.42;41.86
63111;BME280;49201;53.426;10.300;2023-04-10T10:48:33;101405.19;;;19.89;41.98
63111;BME280;49201;53.426;10.300;2023-04-10T10:50:59;101397.22;;;19.00;42.78
63111;BME280;49201;53.426;10.300;2023-04-10T10:58:52;101380.19;;;19.75;42.53
63111;BME280;49201;53.426;10.300;2023-04-10T11:01:20;101367.66;;;20.17;42.29
63111;BME280;49201;53.426;10.300;2023-04-10T11:03:47;101350.47;;;20.03;41.58
63111;BME280;49201;53.426;10.300;2023-04-10T11:06:20;101351.38;;;19.97;40.52
63111;BME280;49201;53.426;10.300;2023-04-10T11:08:48;101398.00;;;20.18;41.89
63111;BME280;49201;53.426;10.300;2023-04-10T11:11:15;101377.25;;;20.12;41.47
63111;BME280;49201;53.426;10.300;2023-04-10T11:19:00;101365.56;;;19.65;40.78
63111;BME280;49201;53.426;10.300;2023-04-10T11:21:26;101388.41;;;19.30;41.86
63111;BME280;49201;53.426;10.300;2023-04-10T11:29:05;101469.81;;;19.15;42.68
63111;BME280;49201;53.426;10.300;2023-04-10T11:31:32;101429.47;;;19.88;41.23
63111;BME280;49201;53.426;10.300;2023-04-10T11:34:01;101417.78;;;20.31;40.42
63111;BME280;49201;53.426;10.300;2023-04-10T11:36:27;101416.00;;;20.36;39.39
63111;BME280;49201;53.426;10.300;2023-04-10T11:41:26;101426.78;;;19.99;38.70
63111;BME280;49201;53.426;10.300;2023-04-10T11:43:53;101422.06;;;20.40;37.73
63111;BME280;49201;53.426;10.300;2023-04-10T11:46:19;101571.34;;;20.27;37.33
63111;BME280;49201;53.426;10.300;2023-04-10T11:48:44;101565.13;;;20.41;36.80
63111;BME280;49201;53.426;10.300;2023-04-10T11:51:12;101570.16;;;20.62;37.04
63111;BME280;49201;53.426;10.300;2023-04-10T11:53:41;101572.56;;;20.82;37.65
63111;BME280;49201;53.426;10.300;2023-04-10T11:56:17;101548.69;;;21.18;36.30
63111;BME280;49201;53.426;10.300;2023-04-10T11:58:42;101571.22;;;21.23;36.55
63111;BME280;49201;53.426;10.300;2023-04-10T12:01:08;101566.13;;;21.14;37.09
63111;BME280;49201;53.426;10.300;2023-04-10T12:03:42;101558.41;;;21.04;36.32
63111;BME280;49201;53.426;10.300;2023-04-10T12:06:12;101560.34;;;20.87;35.85
63111;BME280;49201;53.426;10.300;2023-04-10T12:08:43;101580.50;;;20.67;36.39
63111;BME280;49201;53.426;10.300;2023-04-10T12:11:23;101565.41;;;21.00;36.26
63111;BME280;49201;53.426;10.300;2023-04-10T12:13:55;101554.13;;;21.01;35.58
63111;BME280;49201;53.426;10.300;2023-04-10T12:16:21;101565.09;;;21.26;36.25
63111;BME280;49201;53.426;10.300;2023-04-10T12:18:48;101548.31;;;21.46;35.42
63111;BME280;49201;53.426;10.300;2023-04-10T12:21:14;101554.75;;;21.23;34.94
63111;BME280;49201;53.426;10.300;2023-04-10T12:23:41;101572.75;;;20.61;36.40
63111;BME280;49201;53.426;10.300;2023-04-10T12:26:16;101577.88;;;20.70;35.53
63111;BME280;49201;53.426;10.300;2023-04-10T12:28:50;101546.47;;;20.83;35.74
63111;BME280;49201;53.426;10.300;2023-04-10T12:31:16;101570.22;;;21.32;36.72
63111;BME280;49201;53.426;10.300;2023-04-10T12:33:45;101542.41;;;21.35;35.65
63111;BME280;49201;53.426;10.300;2023-04-10T12:36:21;101549.31;;;21.38;36.08
63111;BME280;49201;53.426;10.300;2023-04-10T12:38:46;101523.28;;;21.35;35.44
63111;BME280;49201;53.426;10.300;2023-04-10T12:41:12;101538.84;;;21.41;35.79
63111;BME280;49201;53.426;10.300;2023-04-10T12:43:39;101533.81;;;21.29;35.31
63111;BME280;49201;53.426;10.300;2023-04-10T12:46:07;101523.00;;;20.86;35.29
63111;BME280;49201;53.426;10.300;2023-04-10T12:48:33;101534.06;;;21.06;35.93
63111;BME280;49201;53.426;10.300;2023-04-10T12:50:59;101540.13;;;21.10;36.26
63111;BME280;49201;53.426;10.300;2023-04-10T12:53:25;101540.13;;;21.10;36.13
63111;BME280;49201;53.426;10.300;2023-04-10T12:56:01;101555.47;;;20.55;37.13
63111;BME280;49201;53.426;10.300;2023-04-10T12:58:28;101556.59;;;20.27;36.85
63111;BME280;49201;53.426;10.300;2023-04-10T13:01:04;101553.63;;;20.68;37.30
63111;BME280;49201;53.426;10.300;2023-04-10T13:03:32;101530.38;;;20.51;36.63
63111;BME280;49201;53.426;10.300;2023-04-10T13:05:58;101523.53;;;20.40;36.08
63111;BME280;49201;53.426;10.300;2023-04-10T13:08:23;101509.47;;;20.57;36.97
63111;BME280;49201;53.426;10.300;2023-04-10T13:10:49;101544.22;;;20.52;37.92
63111;BME280;49201;53.426;10.300;2023-04-10T13:13:15;101513.22;;;20.28;36.88
63111;BME280;49201;53.426;10.300;2023-04-10T13:15:41;101519.41;;;20.19;37.54
63111;BME280;49201;53.426;10.300;2023-04-10T13:18:07;101511.50;;;20.28;37.04
63111;BME280;49201;53.426;10.300;2023-04-10T13:20:38;101536.72;;;20.22;38.11
63111;BME280;49201;53.426;10.300;2023-04-10T13:23:04;101510.66;;;20.25;37.34
63111;BME280;49201;53.426;10.300;2023-04-10T13:25:31;101509.91;;;20.14;38.04
63111;BME280;49201;53.426;10.300;2023-04-10T13:28:01;101527.28;;;20.09;38.30
63111;BME280;49201;53.426;10.300;2023-04-10T13:30:27;101519.53;;;20.01;39.07